createdAt,value
2023-04-29T00:01:27.069Z,101050.44
2023-04-29T00:03:54.319Z,101041.66
2023-04-29T00:06:22.600Z,101040.81
2023-04-29T00:08:50.091Z,101036.41
2023-04-29T00:11:16.997Z,101033.56
2023-04-29T00:13:44.869Z,101024.75
2023-04-29T00:16:11.905Z,101008.16
2023-04-29T00:18:38.969Z,101003.09
2023-04-29T00:21:06.316Z,101003.09
2023-04-29T00:23:34.206Z,101009.88
2023-04-29T00:26:01.362Z,100993.94
2023-04-29T00:28:28.510Z,100994.28
2023-04-29T00:30:56.278Z,100992.56
2023-04-29T00:33:23.674Z,100988.88
2023-04-29T00:35:51.390Z,100983.81
2023-04-29T00:38:18.558Z,100982.63
2023-04-29T00:40:45.979Z,100979.06
2023-04-29T00:43:13.591Z,100978.06
2023-04-29T00:45:40.660Z,100970.94
2023-04-29T00:48:08.088Z,100963.53
2023-04-29T00:50:36.923Z,100967.25
2023-04-29T00:53:04.515Z,100963.88
2023-04-29T00:55:33.460Z,100961.00
2023-04-29T00:58:02.860Z,100962.19
2023-04-29T01:00:30.922Z,100956.78
2023-04-29T01:02:59.875Z,100951.38
2023-04-29T01:05:27.919Z,100949.66
2023-04-29T01:08:13.226Z,100947.66
2023-04-29T01:11:09.711Z,100938.84
2023-04-29T01:14:00.893Z,100936.16
2023-04-29T01:16:38.128Z,100926.66
2023-04-29T01:19:45.689Z,100920.38
2023-04-29T01:22:14.686Z,100917.84
2023-04-29T01:24:41.931Z,100913.28
2023-04-29T01:27:24.390Z,100905.88
2023-04-29T01:30:21.504Z,100899.63
2023-04-29T01:33:01.238Z,100901.63
2023-04-29T01:35:41.471Z,100903.47
2023-04-29T01:38:23.824Z,100892.66
2023-04-29T01:41:01.903Z,100906.19
2023-04-29T01:43:32.944Z,100893.16
2023-04-29T01:46:09.264Z,100888.75
2023-04-29T01:48:37.600Z,100889.78
2023-04-29T01:51:06.650Z,100881.69
2023-04-29T01:53:33.905Z,100882.16
2023-04-29T01:56:01.017Z,100868.81
2023-04-29T01:58:44.705Z,100859.84
2023-04-29T02:01:20.817Z,100862.88
2023-04-29T02:03:48.383Z,100857.50
2023-04-29T02:06:16.545Z,100853.59
2023-04-29T02:08:45.725Z,100841.44
2023-04-29T02:11:12.664Z,100839.56
2023-04-29T02:13:41.779Z,100836.38
2023-04-29T02:16:11.275Z,100832.47
2023-04-29T02:18:42.844Z,100843.44
2023-04-29T02:21:10.093Z,100845.31
2023-04-29T02:23:37.136Z,100839.72
2023-04-29T02:26:07.745Z,100845.31
2023-04-29T02:28:35.278Z,100830.25
2023-04-29T02:31:03.911Z,100838.16
2023-04-29T02:33:31.552Z,100833.44
2023-04-29T02:35:59.847Z,100843.41
2023-04-29T02:38:26.997Z,100845.75
2023-04-29T02:40:54.008Z,100840.66
2023-04-29T02:43:21.984Z,100839.31
2023-04-29T02:45:49.065Z,100836.59
2023-04-29T02:48:17.225Z,100845.72
2023-04-29T02:50:44.247Z,100846.81
2023-04-29T02:53:11.312Z,100841.09
2023-04-29T02:55:38.476Z,100834.88
2023-04-29T02:58:09.279Z,100828.63
2023-04-29T03:00:36.293Z,100819.81
2023-04-29T03:03:03.540Z,100813.56
2023-04-29T03:05:30.736Z,100807.50
2023-04-29T03:07:58.202Z,100805.94
2023-04-29T03:10:25.594Z,100806.47
2023-04-29T03:12:52.580Z,100810.19
2023-04-29T03:15:20.367Z,100819.59
2023-04-29T03:17:47.482Z,100838.84
2023-04-29T03:20:14.603Z,100838.13
2023-04-29T03:22:41.576Z,100850.81
2023-04-29T03:25:10.687Z,100853.66
2023-04-29T03:27:39.538Z,100847.25
2023-04-29T03:30:07.954Z,100849.25
2023-04-29T03:32:38.481Z,100847.56
2023-04-29T03:35:06.625Z,100854.13
2023-04-29T03:37:39.172Z,100857.69
2023-04-29T03:40:20.125Z,100857.31
2023-04-29T03:42:48.912Z,100860.00
2023-04-29T03:45:16.185Z,100858.16
2023-04-29T03:47:43.749Z,100856.31
2023-04-29T03:50:12.023Z,100851.91
2023-04-29T03:52:40.273Z,100834.88
2023-04-29T03:55:14.366Z,100832.31
2023-04-29T03:57:42.844Z,100830.63
2023-04-29T04:00:11.456Z,100830.63
2023-04-29T04:02:45.178Z,100835.34
2023-04-29T04:05:13.318Z,100834.34
2023-04-29T04:07:44.315Z,100834.59
2023-04-29T04:10:34.175Z,100836.63
2023-04-29T04:13:04.571Z,100847.72
2023-04-29T04:15:32.244Z,100853.84
2023-04-29T04:18:00.027Z,100853.44
2023-04-29T04:20:27.150Z,100848.91
2023-04-29T04:22:55.063Z,100847.34
2023-04-29T04:25:25.710Z,100838.97
2023-04-29T04:27:58.290Z,100843.34
2023-04-29T04:30:41.897Z,100846.88
2023-04-29T04:33:09.326Z,100839.63
2023-04-29T04:35:37.630Z,100832.38
2023-04-29T04:38:04.796Z,100840.34
2023-04-29T04:40:31.889Z,100843.34
2023-04-29T04:43:19.118Z,100851.84
2023-04-29T04:45:49.333Z,100855.34
2023-04-29T04:48:16.558Z,100862.78
2023-04-29T04:50:48.745Z,100872.00
2023-04-29T04:53:17.489Z,100866.63
2023-04-29T04:55:55.080Z,100858.84
2023-04-29T04:58:22.435Z,100854.81
2023-04-29T05:00:49.438Z,100861.59
2023-04-29T05:03:17.085Z,100868.41
2023-04-29T05:05:44.057Z,100875.22
2023-04-29T05:08:11.483Z,100882.97
2023-04-29T05:10:44.617Z,100872.88
2023-04-29T05:13:12.840Z,100871.56
2023-04-29T05:15:40.473Z,100879.34
2023-04-29T05:18:08.974Z,100886.09
2023-04-29T05:20:36.058Z,100895.91
2023-04-29T05:23:04.074Z,100905.69
2023-04-29T05:25:36.754Z,100905.38
2023-04-29T05:28:04.784Z,100919.78
2023-04-29T05:30:34.587Z,100917.59
2023-04-29T05:33:01.917Z,100926.31
2023-04-29T05:35:29.044Z,100929.81
2023-04-29T05:37:56.117Z,100925.53
2023-04-29T05:40:32.328Z,100929.34
2023-04-29T05:43:16.546Z,100936.09
2023-04-29T05:45:47.091Z,100937.97
2023-04-29T05:48:14.364Z,100936.09
2023-04-29T05:50:41.699Z,100936.00
2023-04-29T05:53:08.909Z,100950.34
2023-04-29T05:55:37.859Z,100956.47
2023-04-29T05:58:05.007Z,100938.66
2023-04-29T06:00:32.061Z,100948.91
2023-04-29T06:03:07.457Z,100945.84
2023-04-29T06:05:36.166Z,100953.44
2023-04-29T06:08:28.326Z,100961.84
2023-04-29T06:11:05.437Z,100971.34
2023-04-29T06:13:33.270Z,100978.34
2023-04-29T06:16:00.399Z,100979.84
2023-04-29T06:18:32.044Z,100963.22
2023-04-29T06:20:59.588Z,100967.28
2023-04-29T06:23:26.725Z,100963.03
2023-04-29T06:25:54.271Z,100950.75
2023-04-29T06:28:22.096Z,100956.44
2023-04-29T06:30:49.152Z,100955.94
2023-04-29T06:33:16.550Z,100960.50
2023-04-29T06:35:43.923Z,100975.72
2023-04-29T06:38:43.441Z,100977.78
2023-04-29T06:41:29.502Z,100992.00
2023-04-29T06:43:59.404Z,100989.63
2023-04-29T06:46:45.361Z,100991.28
2023-04-29T06:49:43.895Z,100975.41
2023-04-29T06:52:10.852Z,100991.66
2023-04-29T06:54:37.822Z,100993.16
2023-04-29T06:57:04.740Z,100996.06
2023-04-29T06:59:31.722Z,101005.16
2023-04-29T07:01:58.766Z,101003.84
2023-04-29T07:04:26.151Z,101006.88
2023-04-29T07:06:54.100Z,101016.91
2023-04-29T07:09:21.151Z,101012.97
2023-04-29T07:11:48.125Z,101014.03
2023-04-29T07:14:15.251Z,101036.41
2023-04-29T07:16:42.206Z,101020.66
2023-04-29T07:19:10.797Z,101027.06
2023-04-29T07:21:37.754Z,101033.13
2023-04-29T07:24:05.449Z,101026.13
2023-04-29T07:26:32.685Z,101025.91
2023-04-29T07:28:59.588Z,101013.88
2023-04-29T07:31:27.228Z,101015.75
2023-04-29T07:33:55.332Z,101021.50
2023-04-29T07:36:22.479Z,101025.09
2023-04-29T07:38:49.502Z,101008.59
2023-04-29T07:41:16.964Z,101015.00
2023-04-29T07:43:44.272Z,101020.72
2023-04-29T07:46:12.003Z,101008.94
2023-04-29T07:48:40.180Z,101011.16
2023-04-29T07:51:07.256Z,101024.72
2023-04-29T07:53:34.435Z,101033.38
2023-04-29T07:56:06.393Z,101016.94
2023-04-29T07:58:33.707Z,101017.00
2023-04-29T08:01:12.104Z,101006.41
2023-04-29T08:03:41.978Z,101006.00
2023-04-29T08:06:10.530Z,101013.69
2023-04-29T08:08:37.656Z,101003.63
2023-04-29T08:11:05.230Z,101004.66
2023-04-29T08:13:32.567Z,101000.41
2023-04-29T08:16:01.229Z,100998.59
2023-04-29T08:18:28.276Z,100998.84
2023-04-29T08:20:55.216Z,100997.00
2023-04-29T08:23:22.097Z,101001.34
2023-04-29T08:25:51.971Z,101004.38
2023-04-29T08:28:19.719Z,101003.41
2023-04-29T08:30:46.848Z,101011.78
2023-04-29T08:33:14.683Z,101007.28
2023-04-29T08:35:42.187Z,101005.00
2023-04-29T08:38:10.238Z,100995.53
2023-04-29T08:40:42.678Z,100984.41
2023-04-29T08:43:10.693Z,101004.13
2023-04-29T08:45:39.803Z,100997.19
2023-04-29T08:48:10.477Z,100990.41
2023-04-29T08:50:40.252Z,100992.38
2023-04-29T08:53:11.865Z,101006.81
2023-04-29T08:55:43.879Z,101010.78
2023-04-29T08:58:12.262Z,101011.03
2023-04-29T09:00:40.949Z,101006.16
2023-04-29T09:03:22.852Z,101004.50
2023-04-29T09:05:54.982Z,101008.69
2023-04-29T09:08:24.204Z,101012.69
2023-04-29T09:10:55.214Z,101021.56
2023-04-29T09:13:30.323Z,101026.09
2023-04-29T09:15:57.770Z,101024.53
2023-04-29T09:18:50.519Z,101026.84
2023-04-29T09:21:25.458Z,101028.28
2023-04-29T09:23:57.360Z,101043.59
2023-04-29T09:26:25.240Z,101049.53
2023-04-29T09:29:09.546Z,101052.56
2023-04-29T09:31:38.207Z,101057.91
2023-04-29T09:34:05.660Z,101063.47
2023-04-29T09:36:37.882Z,101063.88
2023-04-29T09:39:12.776Z,101060.41
2023-04-29T09:41:40.689Z,101072.38
2023-04-29T09:44:08.988Z,101055.56
2023-04-29T09:46:36.950Z,101056.66
2023-04-29T09:49:07.037Z,101064.00
2023-04-29T09:51:52.137Z,101063.81
2023-04-29T09:54:24.202Z,101055.53
2023-04-29T09:56:53.488Z,101056.78
2023-04-29T09:59:21.450Z,101056.84
2023-04-29T10:01:53.213Z,101059.44
2023-04-29T10:04:22.028Z,101047.09
2023-04-29T10:06:51.731Z,101048.66
2023-04-29T10:09:20.043Z,101044.78
2023-04-29T10:11:49.596Z,101053.97
2023-04-29T10:14:21.705Z,101048.78
2023-04-29T10:17:10.064Z,101054.22
2023-04-29T10:19:45.334Z,101060.31
2023-04-29T10:22:17.309Z,101046.22
2023-04-29T10:24:44.635Z,101055.66
2023-04-29T10:27:13.278Z,101051.81
2023-04-29T10:29:41.803Z,101046.44
2023-04-29T10:32:10.926Z,101041.28
2023-04-29T10:34:41.560Z,101049.13
2023-04-29T10:37:10.540Z,101049.31
2023-04-29T10:39:53.136Z,101046.06
2023-04-29T10:42:44.578Z,101055.69
2023-04-29T10:45:23.688Z,101050.53
2023-04-29T10:48:09.215Z,101050.38
2023-04-29T10:50:48.200Z,101049.16
2023-04-29T10:53:16.974Z,101054.66
2023-04-29T10:55:48.995Z,101046.41
2023-04-29T10:58:37.771Z,101043.63
2023-04-29T11:01:05.702Z,101040.00
2023-04-29T11:03:55.052Z,101044.09
2023-04-29T11:06:42.864Z,101037.44
2023-04-29T11:09:31.389Z,101030.94
2023-04-29T11:12:09.680Z,101029.22
2023-04-29T11:14:40.538Z,101038.69
2023-04-29T11:17:13.681Z,101031.44
2023-04-29T11:19:46.482Z,101028.88
2023-04-29T11:22:18.282Z,101031.53
2023-04-29T11:25:02.578Z,101014.91
2023-04-29T11:27:34.799Z,101019.91
2023-04-29T11:30:05.233Z,101022.78
2023-04-29T11:32:35.034Z,101034.34
2023-04-29T11:35:12.472Z,101035.72
2023-04-29T11:37:40.948Z,101032.13
2023-04-29T11:40:09.383Z,101035.69
2023-04-29T11:42:40.908Z,101025.88
2023-04-29T11:45:08.358Z,101027.56
2023-04-29T11:47:35.404Z,101032.94
2023-04-29T11:50:10.698Z,101037.00
2023-04-29T11:52:39.479Z,101030.38
2023-04-29T11:55:09.445Z,101026.19
2023-04-29T11:57:36.854Z,101020.91
2023-04-29T12:00:06.165Z,101016.69
2023-04-29T12:02:35.709Z,101021.09
2023-04-29T12:05:08.081Z,101015.91
2023-04-29T12:07:37.252Z,101008.41
2023-04-29T12:10:08.024Z,101006.88
2023-04-29T12:12:36.495Z,100993.47
2023-04-29T12:15:05.533Z,101007.66
2023-04-29T12:17:32.932Z,101007.53
2023-04-29T12:20:00.140Z,101013.09
2023-04-29T12:22:33.588Z,101007.44
2023-04-29T12:25:03.194Z,101015.75
2023-04-29T12:27:31.792Z,101014.59
2023-04-29T12:29:58.792Z,101018.66
2023-04-29T12:32:25.920Z,101025.13
2023-04-29T12:34:53.512Z,101013.25
2023-04-29T12:37:23.782Z,101028.88
2023-04-29T12:39:51.567Z,101024.44
2023-04-29T12:42:18.581Z,101033.50
2023-04-29T12:44:48.854Z,101027.53
2023-04-29T12:47:17.049Z,101025.66
2023-04-29T12:49:46.159Z,101016.19
2023-04-29T12:52:13.699Z,101034.66
2023-04-29T12:54:44.346Z,101028.91
2023-04-29T12:57:12.312Z,101034.81
2023-04-29T12:59:41.378Z,101024.16
2023-04-29T13:02:09.241Z,101019.09
2023-04-29T13:04:36.542Z,101020.44
2023-04-29T13:07:04.563Z,101017.38
2023-04-29T13:09:31.688Z,101009.22
2023-04-29T13:11:59.697Z,101007.56
2023-04-29T13:14:27.133Z,101006.50
2023-04-29T13:16:54.317Z,101018.41
2023-04-29T13:21:52.408Z,101003.38
2023-04-29T13:24:20.379Z,101010.34
2023-04-29T13:26:49.654Z,101009.41
2023-04-29T13:29:18.728Z,101004.41
2023-04-29T13:31:45.863Z,101005.81
2023-04-29T13:34:12.950Z,101016.03
2023-04-29T13:36:40.098Z,101007.34
2023-04-29T13:39:07.406Z,101003.50
2023-04-29T13:41:35.717Z,100992.94
2023-04-29T13:44:04.919Z,100990.47
2023-04-29T13:46:34.772Z,101002.09
2023-04-29T13:49:31.932Z,100993.66
2023-04-29T14:04:21.971Z,100997.06
2023-04-29T14:06:49.009Z,100986.63
2023-04-29T14:09:18.085Z,100987.56
2023-04-29T14:11:44.967Z,100988.75
2023-04-29T14:14:11.850Z,100996.88
2023-04-29T14:16:39.105Z,100991.31
2023-04-29T14:19:06.546Z,100984.34
2023-04-29T14:21:33.907Z,100986.41
2023-04-29T14:24:02.741Z,100993.25
2023-04-29T14:26:31.176Z,100976.72
2023-04-29T14:29:00.121Z,100978.09
2023-04-29T14:31:29.490Z,100984.88
2023-04-29T14:33:57.969Z,100985.50
2023-04-29T14:36:26.876Z,100964.75
2023-04-29T14:38:54.228Z,100972.03
2023-04-29T14:41:23.900Z,100978.59
2023-04-29T14:43:52.380Z,100984.72
2023-04-29T14:46:20.431Z,100977.91
2023-04-29T14:48:47.794Z,100980.25
2023-04-29T14:51:17.299Z,100968.88
2023-04-29T14:53:44.544Z,100973.59
2023-04-29T14:56:11.678Z,100960.47
2023-04-29T14:58:38.804Z,100966.16
2023-04-29T15:01:06.578Z,100977.66
2023-04-29T15:03:33.647Z,100975.09
2023-04-29T15:06:04.366Z,100968.16
2023-04-29T15:08:31.704Z,100967.84
2023-04-29T15:10:59.056Z,100979.09
2023-04-29T15:13:26.347Z,100971.97
2023-04-29T15:15:53.390Z,100981.81
2023-04-29T15:18:23.358Z,100976.41
2023-04-29T15:20:53.890Z,100987.84
2023-04-29T15:23:20.842Z,100973.09
2023-04-29T15:25:48.013Z,100977.22
2023-04-29T15:28:18.018Z,100964.91
2023-04-29T15:30:45.442Z,100976.72
2023-04-29T15:33:12.507Z,100982.19
2023-04-29T15:35:39.541Z,100983.53
2023-04-29T15:38:07.215Z,100981.81
2023-04-29T15:40:34.233Z,100981.50
2023-04-29T15:43:01.584Z,100982.66
2023-04-29T15:45:28.642Z,100975.06
2023-04-29T15:47:57.254Z,100980.81
2023-04-29T15:50:24.223Z,100976.22
2023-04-29T15:52:55.201Z,100982.66
2023-04-29T15:55:22.628Z,100980.63
2023-04-29T15:57:51.494Z,100976.03
2023-04-29T16:00:19.189Z,100970.88
2023-04-29T16:02:46.865Z,100962.84
2023-04-29T16:05:13.984Z,100971.13
2023-04-29T16:07:40.970Z,100972.44
2023-04-29T16:10:08.194Z,100965.81
2023-04-29T16:12:35.068Z,100953.28
2023-04-29T16:15:02.174Z,100961.06
2023-04-29T16:17:29.799Z,100965.13
2023-04-29T16:19:56.900Z,100966.81
2023-04-29T16:22:23.949Z,100976.72
2023-04-29T16:24:51.306Z,100961.59
2023-04-29T16:27:18.295Z,100961.94
2023-04-29T16:29:52.894Z,100966.66
2023-04-29T16:32:22.789Z,100973.84
2023-04-29T16:34:49.734Z,100968.66
2023-04-29T16:37:16.765Z,100972.22
2023-04-29T16:39:43.887Z,100973.72
2023-04-29T16:42:11.389Z,100974.75
2023-04-29T16:44:38.337Z,100980.41
2023-04-29T16:47:05.554Z,100974.22
2023-04-29T16:49:32.498Z,100982.69
2023-04-29T16:51:59.416Z,100983.16
2023-04-29T16:54:27.783Z,100979.09
2023-04-29T16:56:54.747Z,100983.19
2023-04-29T16:59:21.783Z,100982.84
2023-04-29T17:01:49.063Z,100996.72
2023-04-29T17:04:16.290Z,100994.69
2023-04-29T17:06:43.694Z,100991.28
2023-04-29T17:09:11.575Z,100987.59
2023-04-29T17:11:38.604Z,100985.22
2023-04-29T17:14:05.760Z,100993.69
2023-04-29T17:16:33.297Z,100998.28
2023-04-29T17:19:00.351Z,100994.03
2023-04-29T17:21:29.385Z,100993.69
2023-04-29T17:23:56.800Z,100998.41
2023-04-29T17:26:24.050Z,100997.06
2023-04-29T17:28:51.026Z,100992.34
2023-04-29T17:31:22.758Z,101001.13
2023-04-29T17:33:55.643Z,101001.47
2023-04-29T17:36:22.844Z,101003.00
2023-04-29T17:38:49.946Z,101011.47
2023-04-29T17:41:16.909Z,101018.06
2023-04-29T17:43:43.780Z,101004.53
2023-04-29T17:46:10.802Z,101008.91
2023-04-29T17:48:37.998Z,101001.47
2023-04-29T17:51:05.111Z,101002.47
2023-04-29T17:53:33.359Z,100998.06
2023-04-29T17:56:00.248Z,100985.56
2023-04-29T17:58:29.065Z,100982.50
2023-04-29T18:00:56.873Z,100983.19
2023-04-29T18:03:27.405Z,100988.59
2023-04-29T18:05:54.600Z,101000.47
2023-04-29T18:08:23.577Z,100995.41
2023-04-29T18:10:50.743Z,100989.63
2023-04-29T18:13:17.968Z,100989.28
2023-04-29T18:15:50.289Z,100997.41
2023-04-29T18:18:18.423Z,100999.44
2023-04-29T18:20:45.533Z,101000.47
2023-04-29T18:23:15.204Z,101006.22
2023-04-29T18:25:42.259Z,101003.16
2023-04-29T18:28:24.158Z,101000.81
2023-04-29T18:30:53.504Z,101017.56
2023-04-29T18:33:20.544Z,101015.38
2023-04-29T18:35:47.610Z,101012.66
2023-04-29T18:38:17.562Z,101014.19
2023-04-29T18:40:44.936Z,101011.97
2023-04-29T18:43:15.368Z,101021.81
2023-04-29T18:45:45.195Z,101018.09
2023-04-29T18:48:13.115Z,101024.84
2023-04-29T18:50:42.830Z,101020.09
2023-04-29T18:53:09.915Z,101032.97
2023-04-29T18:55:37.046Z,101027.00
2023-04-29T18:58:04.482Z,101032.28
2023-04-29T19:00:31.570Z,101030.75
2023-04-29T19:02:58.974Z,101017.38
2023-04-29T19:05:28.312Z,101031.56
2023-04-29T19:07:55.483Z,101041.72
2023-04-29T19:10:22.408Z,101061.72
2023-04-29T19:12:49.452Z,101069.84
2023-04-29T19:15:17.808Z,101069.19
2023-04-29T19:17:44.843Z,101072.25
2023-04-29T19:20:12.222Z,101078.84
2023-04-29T19:22:39.336Z,101083.78
2023-04-29T19:25:06.779Z,101105.09
2023-04-29T19:27:33.718Z,101105.94
2023-04-29T19:30:00.699Z,101109.34
2023-04-29T19:32:30.181Z,101108.50
2023-04-29T19:34:57.585Z,101135.25
2023-04-29T19:37:25.026Z,101152.84
2023-04-29T19:39:53.106Z,101151.50
2023-04-29T19:42:20.363Z,101162.00
2023-04-29T19:44:47.616Z,101162.34
2023-04-29T19:47:14.733Z,101184.66
2023-04-29T19:49:41.924Z,101178.16
2023-04-29T19:52:08.974Z,101177.84
2023-04-29T19:54:36.080Z,101180.22
2023-04-29T19:57:03.224Z,101196.44
2023-04-29T19:59:30.176Z,101190.31
2023-04-29T20:01:57.301Z,101195.72
2023-04-29T20:04:25.617Z,101188.94
2023-04-29T20:06:52.573Z,101188.94
2023-04-29T20:09:19.774Z,101198.25
2023-04-29T20:11:47.117Z,101190.81
2023-04-29T20:14:14.049Z,101186.19
2023-04-29T20:16:41.289Z,101175.72
2023-04-29T20:19:08.299Z,101173.00
2023-04-29T20:21:35.686Z,101168.28
2023-04-29T20:24:02.605Z,101172.69
2023-04-29T20:26:30.165Z,101176.06
2023-04-29T20:28:57.193Z,101172.38
2023-04-29T20:31:24.210Z,101167.47
2023-04-29T20:33:51.501Z,101161.91
2023-04-29T20:36:18.833Z,101163.41
2023-04-29T20:38:46.627Z,101156.31
2023-04-29T20:41:13.662Z,101151.41
2023-04-29T20:43:41.440Z,101154.28
2023-04-29T20:46:08.390Z,101146.00
2023-04-29T20:48:35.373Z,101139.88
2023-04-29T20:51:02.268Z,101149.38
2023-04-29T20:53:29.304Z,101154.41
2023-04-29T20:55:56.302Z,101160.16
2023-04-29T20:58:24.030Z,101162.22
2023-04-29T21:00:51.571Z,101166.63
2023-04-29T21:03:20.917Z,101162.91
2023-04-29T21:05:47.984Z,101150.38
2023-04-29T21:08:14.932Z,101141.25
2023-04-29T21:10:41.893Z,101137.88
2023-04-29T21:13:09.837Z,101131.59
2023-04-29T21:15:37.632Z,101131.41
2023-04-29T21:18:06.063Z,101124.13
2023-04-29T21:20:33.307Z,101132.09
2023-04-29T21:23:00.259Z,101147.50
2023-04-29T21:25:27.653Z,101147.00
2023-04-29T21:27:54.720Z,101147.00
2023-04-29T21:30:21.831Z,101145.28
2023-04-29T21:32:48.954Z,101151.72
2023-04-29T21:35:16.854Z,101142.56
2023-04-29T21:37:47.370Z,101145.94
2023-04-29T21:40:14.738Z,101145.09
2023-04-29T21:42:43.668Z,101147.28
2023-04-29T21:45:15.656Z,101134.75
2023-04-29T21:47:43.567Z,101130.69
2023-04-29T21:50:11.421Z,101125.25
2023-04-29T21:52:38.604Z,101118.81
2023-04-29T21:55:06.443Z,101119.19
2023-04-29T21:57:43.422Z,101112.72
2023-04-29T22:00:27.872Z,101120.69
2023-04-29T22:02:55.430Z,101130.16
2023-04-29T22:05:22.482Z,101137.91
2023-04-29T22:07:49.629Z,101144.50
2023-04-29T22:10:16.685Z,101153.66
2023-04-29T22:12:43.720Z,101166.44
2023-04-29T22:15:24.545Z,101168.78
2023-04-29T22:17:54.974Z,101162.13
2023-04-29T22:20:22.223Z,101176.13
2023-04-29T22:22:49.373Z,101176.75
2023-04-29T22:25:16.293Z,101180.25
2023-04-29T22:27:44.174Z,101171.66
2023-04-29T22:30:11.593Z,101178.22
2023-04-29T22:32:38.677Z,101180.09
2023-04-29T22:35:06.286Z,101182.16
2023-04-29T22:37:33.328Z,101183.00
2023-04-29T22:40:00.405Z,101175.03
2023-04-29T22:42:27.610Z,101168.63
2023-04-29T22:44:54.628Z,101154.06
2023-04-29T22:47:21.774Z,101147.94
2023-04-29T22:49:48.658Z,101134.09
2023-04-29T22:52:15.571Z,101106.34
2023-04-29T22:54:42.716Z,101082.94
2023-04-29T22:57:09.722Z,101112.91
2023-04-29T22:59:36.712Z,101142.16
2023-04-29T23:02:03.633Z,101136.63
2023-04-29T23:04:32.422Z,101139.47
2023-04-29T23:06:59.393Z,101142.16
2023-04-29T23:09:26.678Z,101139.09
2023-04-29T23:11:53.618Z,101131.31
2023-04-29T23:14:21.778Z,101115.09
2023-04-29T23:16:49.844Z,101107.59
2023-04-29T23:19:16.805Z,101094.94
2023-04-29T23:21:43.729Z,101088.69
2023-04-29T23:24:11.025Z,101078.22
2023-04-29T23:26:37.902Z,101071.22
2023-04-29T23:29:04.853Z,101063.50
2023-04-29T23:31:31.824Z,101080.56
2023-04-29T23:33:59.696Z,101090.41
2023-04-29T23:36:27.685Z,101100.22
2023-04-29T23:38:54.715Z,101098.91
2023-04-29T23:41:21.635Z,101093.50
2023-04-29T23:43:48.649Z,101093.19
2023-04-29T23:46:15.549Z,101099.41
2023-04-29T23:48:42.446Z,101100.28
2023-04-29T23:51:09.841Z,101108.22
2023-04-29T23:53:38.678Z,101104.53
2023-04-29T23:56:06.176Z,101115.97
2023-04-29T23:58:33.183Z,101115.81
